Terminal Aerodrome Forecast
Issued by NWS

Home | Current Version | Previous Version | Text Only | Print | Product List | Glossary On
Versions: 1 2 3 4 5 6 7 8 9 10 11 12 13 14 15 16 17
000
FTUS45 KRIW 271120
TAFJAC
TAF
KJAC 271120Z 2712/2812 22009KT P6SM -SN SCT016 OVC035
      TEMPO 2712/2716 4SM -SN BKN024
     FM271600 22010KT 5SM -SN SCT015 OVC025
     FM272200 25010KT 3SM -SN SCT015 BKN020 OVC030
     FM280200 20008KT P6SM VCSH SCT020 BKN035
      AMD LTD TO CLD VIS AND WIND=

USA.gov is the U.S. government's official web portal to all federal, state and local government web resources and services.